Time;durP1;ratioP1;P1;durP2;ratioP2;P2;SDS_P1;SDS_P2;PMS_P1;PMS_P2;Temp;Humidity;BMP_temperature;BMP_pressure;BME280_temperature;BME280_humidity;BME280_pressure;Samples;Min_cycle;Max_cycle;Signal;HPM_P1;HPM_P2
2022/10/21 00:01:06;;;;;;;10.43;9.43;;;14.40;99.90;;;;;;5097801;28;20181;-43
2022/10/21 00:03:32;;;;;;;12.00;9.00;;;14.40;99.90;;;;;;5095062;28;20467;-42
2022/10/21 00:05:57;;;;;;;13.20;10.90;;;14.40;99.90;;;;;;5097438;28;20236;-43
2022/10/21 00:08:24;;;;;;;10.93;8.77;;;14.40;99.90;;;;;;5092143;28;20251;-44
2022/10/21 00:10:54;;;;;;;11.93;9.90;;;14.30;99.90;;;;;;5096071;28;20186;-45
2022/10/21 00:13:20;;;;;;;10.03;9.03;;;14.30;99.90;;;;;;5095370;28;20457;-43
2022/10/21 00:16:00;;;;;;;11.63;10.43;;;14.30;99.90;;;;;;5093540;28;20873;-45
2022/10/21 00:18:27;;;;;;;11.60;10.50;;;14.30;99.90;;;;;;5092833;28;20293;-45
2022/10/21 00:20:52;;;;;;;10.30;9.17;;;14.30;99.90;;;;;;5095009;28;20431;-44
2022/10/21 00:23:18;;;;;;;10.17;9.17;;;14.20;99.90;;;;;;5090852;28;20458;-44
2022/10/21 00:25:43;;;;;;;10.77;9.70;;;14.20;99.90;;;;;;5095166;28;20213;-42
2022/10/21 00:28:09;;;;;;;11.87;10.50;;;14.20;99.90;;;;;;5093446;28;20495;-45
2022/10/21 00:30:35;;;;;;;10.80;9.80;;;14.20;99.90;;;;;;5093085;28;20177;-45
2022/10/21 00:33:00;;;;;;;12.17;9.73;;;14.20;99.90;;;;;;5094133;28;20186;-44
2022/10/21 00:35:26;;;;;;;12.93;11.00;;;14.20;99.90;;;;;;5094439;28;20220;-43
2022/10/21 00:37:51;;;;;;;11.30;10.07;;;14.20;99.90;;;;;;5095361;28;20735;-44
2022/10/21 00:40:17;;;;;;;10.90;9.90;;;14.20;99.90;;;;;;5095060;28;20339;-48
2022/10/21 00:42:43;;;;;;;11.03;9.90;;;14.20;99.90;;;;;;5092274;28;20594;-43
2022/10/21 00:45:12;;;;;;;11.30;10.30;;;14.20;99.90;;;;;;5096447;28;20216;-45
2022/10/21 00:48:05;;;;;;;10.87;9.77;;;14.20;99.90;;;;;;5092744;28;20195;-43
2022/10/21 00:50:38;;;;;;;10.07;9.10;;;14.20;99.90;;;;;;5095134;28;20428;-43
2022/10/21 00:53:06;;;;;;;11.63;10.50;;;14.20;99.90;;;;;;5093379;28;20456;-45
2022/10/21 00:55:34;;;;;;;9.90;9.10;;;14.20;99.90;;;;;;5092199;28;20441;-45
2022/10/21 00:58:00;;;;;;;11.23;10.23;;;14.30;99.90;;;;;;5093141;28;20457;-43
2022/10/21 01:00:25;;;;;;;10.53;9.53;;;14.30;99.90;;;;;;5091422;28;20437;-44
2022/10/21 01:02:51;;;;;;;9.83;8.93;;;14.30;99.90;;;;;;5094945;28;20779;-43
2022/10/21 01:05:17;;;;;;;11.67;10.30;;;14.20;99.90;;;;;;5095478;28;20240;-43
2022/10/21 01:07:45;;;;;;;11.90;10.40;;;14.20;99.90;;;;;;5095407;28;20191;-43
2022/10/21 01:10:11;;;;;;;10.77;9.77;;;14.20;99.90;;;;;;5084358;28;20432;-42
2022/10/21 01:12:49;;;;;;;11.33;9.40;;;14.30;99.90;;;;;;5093824;28;20451;-43
2022/10/21 01:15:20;;;;;;;11.27;10.27;;;14.20;99.90;;;;;;5097309;28;20553;-42
2022/10/21 01:18:00;;;;;;;9.83;9.03;;;14.20;99.90;;;;;;5093257;28;20441;-45
2022/10/21 01:20:29;;;;;;;10.77;9.87;;;14.30;99.90;;;;;;5095021;28;20442;-44
2022/10/21 01:23:22;;;;;;;11.37;9.20;;;14.30;99.90;;;;;;5093751;28;20477;-45
2022/10/21 01:26:19;;;;;;;10.67;9.77;;;14.20;99.90;;;;;;5096773;28;20526;-45
2022/10/21 01:29:18;;;;;;;10.87;9.90;;;14.20;99.90;;;;;;5088880;28;20534;-43
2022/10/21 01:31:55;;;;;;;10.60;9.50;;;14.20;99.90;;;;;;5095035;28;20454;-45
2022/10/21 01:34:36;;;;;;;11.60;10.40;;;14.20;99.90;;;;;;5078746;28;20474;-44
2022/10/21 01:37:14;;;;;;;12.67;11.37;;;14.20;99.90;;;;;;5080761;28;20526;-44
2022/10/21 01:39:52;;;;;;;11.10;10.00;;;14.20;99.90;;;;;;5079497;28;20408;-44
2022/10/21 01:42:47;;;;;;;12.20;10.90;;;14.20;99.90;;;;;;5083631;28;20443;-45
2022/10/21 01:45:20;;;;;;;13.47;10.90;;;14.30;99.90;;;;;;5079562;28;20459;-45
2022/10/21 01:47:49;;;;;;;12.17;10.90;;;14.20;99.90;;;;;;5096054;28;20841;-43
2022/10/21 01:50:25;;;;;;;13.43;12.03;;;14.30;99.90;;;;;;5099047;28;20405;-45
2022/10/21 01:52:55;;;;;;;10.97;9.97;;;14.30;99.90;;;;;;5097376;28;20425;-43
2022/10/21 01:55:22;;;;;;;12.17;10.97;;;14.30;99.90;;;;;;5095124;28;20607;-45
2022/10/21 01:57:53;;;;;;;11.60;10.50;;;14.30;99.90;;;;;;5096533;28;20448;-44
2022/10/21 02:00:19;;;;;;;12.10;9.87;;;14.30;99.90;;;;;;5096057;28;20536;-42
2022/10/21 02:02:47;;;;;;;11.40;10.07;;;14.30;99.90;;;;;;5098722;28;20450;-43
2022/10/21 02:05:18;;;;;;;10.20;9.20;;;14.30;99.90;;;;;;5099209;28;20535;-44
2022/10/21 02:07:43;;;;;;;11.93;10.73;;;14.30;99.90;;;;;;5097372;28;20838;-44
2022/10/21 02:10:09;;;;;;;12.07;10.93;;;14.30;99.90;;;;;;5100260;28;20446;-46
2022/10/21 02:12:36;;;;;;;12.30;11.17;;;14.40;99.90;;;;;;5098579;28;20284;-42
2022/10/21 02:15:06;;;;;;;9.77;8.87;;;14.40;99.90;;;;;;5099537;28;20454;-43
2022/10/21 02:17:32;;;;;;;10.50;9.50;;;14.40;99.90;;;;;;5098054;28;20431;-43
2022/10/21 02:20:00;;;;;;;11.10;10.07;;;14.40;99.90;;;;;;5098500;28;20445;-42
2022/10/21 02:22:26;;;;;;;10.53;9.50;;;14.40;99.90;;;;;;5097404;28;20781;-43
2022/10/21 02:24:55;;;;;;;10.73;9.67;;;14.40;99.90;;;;;;5098445;28;20491;-42
2022/10/21 02:27:21;;;;;;;10.87;9.87;;;14.40;99.90;;;;;;5097019;28;20264;-42
2022/10/21 02:29:48;;;;;;;12.10;11.00;;;14.40;99.90;;;;;;5098865;28;20403;-42
2022/10/21 02:32:56;;;;;;;10.80;9.30;;;14.40;99.90;;;;;;5097151;28;20419;-43
2022/10/21 02:35:37;;;;;;;12.83;10.80;;;14.40;99.90;;;;;;5020353;28;20777;-42
2022/10/21 02:38:21;;;;;;;11.53;10.43;;;14.40;99.90;;;;;;5074729;28;20442;-43
2022/10/21 02:41:01;;;;;;;11.90;10.80;;;14.50;99.90;;;;;;5099067;28;20429;-43
2022/10/21 02:43:33;;;;;;;12.03;10.93;;;14.40;99.90;;;;;;5097423;28;20438;-43
2022/10/21 02:46:07;;;;;;;12.20;11.10;;;14.40;99.90;;;;;;5096303;28;20469;-44
2022/10/21 02:48:35;;;;;;;12.27;11.17;;;14.40;99.90;;;;;;5096045;28;20426;-45
2022/10/21 02:51:05;;;;;;;11.67;10.43;;;14.40;99.90;;;;;;5097619;28;20420;-42
2022/10/21 02:53:32;;;;;;;12.00;10.80;;;14.50;99.90;;;;;;5091008;28;20431;-43
2022/10/21 02:55:57;;;;;;;12.80;11.67;;;14.50;99.90;;;;;;5077954;28;20409;-42
2022/10/21 02:58:23;;;;;;;12.03;10.83;;;14.50;99.90;;;;;;5076725;28;20809;-43
2022/10/21 03:00:48;;;;;;;11.80;10.70;;;14.50;99.90;;;;;;5095209;28;20185;-46
2022/10/21 03:03:14;;;;;;;12.40;11.10;;;14.50;99.90;;;;;;5097356;28;20185;-43
2022/10/21 03:05:39;;;;;;;11.37;10.17;;;14.50;99.90;;;;;;5098048;28;20258;-43
2022/10/21 03:08:05;;;;;;;12.30;10.90;;;14.50;99.90;;;;;;5094824;28;20526;-43
2022/10/21 03:10:31;;;;;;;12.07;10.97;;;14.50;99.90;;;;;;5091021;28;20246;-43
2022/10/21 03:12:56;;;;;;;12.07;10.53;;;14.50;99.90;;;;;;5093591;28;20185;-44
2022/10/21 03:15:22;;;;;;;16.83;11.90;;;14.60;99.90;;;;;;5096197;28;20645;-43
2022/10/21 03:17:47;;;;;;;13.73;12.23;;;14.50;99.90;;;;;;5094394;28;20264;-43
2022/10/21 03:20:13;;;;;;;14.07;11.77;;;14.60;99.90;;;;;;5095695;28;20184;-43
2022/10/21 03:22:39;;;;;;;13.10;11.17;;;14.60;99.90;;;;;;5094297;28;20193;-45
2022/10/21 03:25:05;;;;;;;12.20;10.70;;;14.60;99.90;;;;;;5094847;28;20201;-45
2022/10/21 03:27:31;;;;;;;13.13;11.77;;;14.60;99.90;;;;;;5092778;28;20182;-42
2022/10/21 03:29:57;;;;;;;12.30;10.77;;;14.60;99.90;;;;;;5095591;28;21206;-45
2022/10/21 03:32:22;;;;;;;13.07;11.73;;;14.60;99.90;;;;;;5095052;28;20482;-44
2022/10/21 03:34:48;;;;;;;11.97;10.80;;;14.60;99.90;;;;;;5090458;28;182913;-43
2022/10/21 03:37:13;;;;;;;12.20;10.87;;;14.60;99.90;;;;;;5095979;28;20589;-46
2022/10/21 03:39:39;;;;;;;12.30;10.77;;;14.60;99.90;;;;;;5098749;28;20203;-43
2022/10/21 03:42:05;;;;;;;11.30;10.20;;;14.60;99.90;;;;;;5096085;28;20510;-43
2022/10/21 03:44:30;;;;;;;12.80;10.20;;;14.70;99.90;;;;;;5094862;28;20253;-46
2022/10/21 03:46:56;;;;;;;11.37;9.30;;;14.70;99.90;;;;;;5096772;28;20459;-43
2022/10/21 03:49:22;;;;;;;10.97;9.20;;;14.70;99.90;;;;;;5098399;28;20211;-43
2022/10/21 03:51:48;;;;;;;12.30;7.83;;;14.70;99.90;;;;;;5095905;28;20193;-42
2022/10/21 03:54:13;;;;;;;11.27;8.20;;;14.70;99.90;;;;;;5096377;28;20410;-45
2022/10/21 03:56:39;;;;;;;11.03;7.67;;;14.70;99.90;;;;;;5095399;28;20434;-42
2022/10/21 03:59:04;;;;;;;12.43;7.30;;;14.70;99.90;;;;;;5096816;28;20261;-44
2022/10/21 04:01:30;;;;;;;9.20;7.67;;;14.80;99.90;;;;;;5095627;28;20184;-44
2022/10/21 04:03:56;;;;;;;11.10;7.83;;;14.80;99.90;;;;;;5096499;28;20509;-44
2022/10/21 04:06:21;;;;;;;8.80;7.10;;;14.80;99.90;;;;;;5095373;28;20263;-43
2022/10/21 04:08:47;;;;;;;11.03;7.87;;;14.80;99.90;;;;;;5097215;28;20177;-42
2022/10/21 04:11:12;;;;;;;7.63;6.90;;;14.80;99.90;;;;;;5094987;28;20181;-42
2022/10/21 04:13:38;;;;;;;9.00;6.17;;;14.80;99.90;;;;;;5095507;28;20176;-43
2022/10/21 04:16:06;;;;;;;13.13;7.50;;;14.80;99.90;;;;;;5095468;28;20185;-46
2022/10/21 04:18:31;;;;;;;9.30;7.33;;;14.80;99.90;;;;;;5093282;28;20580;-49
2022/10/21 04:20:57;;;;;;;7.80;6.87;;;14.80;99.90;;;;;;5093619;28;20504;-43
2022/10/21 04:23:23;;;;;;;10.20;7.10;;;14.80;99.90;;;;;;5092145;28;20840;-43
2022/10/21 04:25:50;;;;;;;7.90;7.00;;;14.80;99.90;;;;;;5087832;28;20268;-44
2022/10/21 04:28:15;;;;;;;8.17;6.43;;;14.80;99.90;;;;;;5073298;28;20442;-44
2022/10/21 04:30:41;;;;;;;10.53;7.63;;;14.80;99.90;;;;;;5085823;28;20444;-43
2022/10/21 04:33:07;;;;;;;10.37;7.20;;;14.80;99.90;;;;;;5076628;28;20200;-44
2022/10/21 04:35:32;;;;;;;8.47;7.27;;;14.80;99.90;;;;;;5073530;28;20316;-43
2022/10/21 04:37:59;;;;;;;11.63;7.40;;;14.90;99.90;;;;;;5072954;28;20260;-46
2022/10/21 04:40:25;;;;;;;10.87;7.87;;;14.90;99.90;;;;;;5072426;28;20240;-44
2022/10/21 04:42:51;;;;;;;8.90;7.43;;;14.90;99.90;;;;;;5083670;28;20430;-44
2022/10/21 04:45:17;;;;;;;9.70;6.60;;;14.90;99.90;;;;;;5087279;28;20870;-43
2022/10/21 04:47:44;;;;;;;9.87;6.87;;;14.90;99.90;;;;;;5070723;28;20424;-44
2022/10/21 04:50:10;;;;;;;14.27;7.50;;;14.90;99.90;;;;;;5079101;28;20429;-44
2022/10/21 04:52:36;;;;;;;11.70;7.33;;;14.90;99.90;;;;;;5089635;28;20438;-43
2022/10/21 04:55:02;;;;;;;11.67;7.73;;;14.90;99.90;;;;;;5083212;28;20442;-43
2022/10/21 04:57:27;;;;;;;9.37;7.00;;;14.90;99.90;;;;;;5073416;28;20543;-44
2022/10/21 04:59:53;;;;;;;10.20;7.00;;;14.90;99.90;;;;;;5082091;28;20523;-44
2022/10/21 05:02:19;;;;;;;9.30;5.87;;;15.00;99.90;;;;;;5071092;28;20189;-44
2022/10/21 05:04:44;;;;;;;9.63;5.73;;;15.00;99.90;;;;;;5076962;28;20719;-43
2022/10/21 05:07:10;;;;;;;9.60;5.57;;;15.00;99.90;;;;;;5077435;28;20821;-42
2022/10/21 05:09:36;;;;;;;9.33;6.37;;;15.00;99.90;;;;;;5085866;28;20170;-47
2022/10/21 05:12:01;;;;;;;10.37;6.70;;;15.00;99.90;;;;;;5094111;28;20187;-44
2022/10/21 05:14:27;;;;;;;11.00;5.20;;;15.00;99.90;;;;;;5094636;28;20248;-44
2022/10/21 05:16:52;;;;;;;11.93;6.23;;;15.10;99.90;;;;;;5092629;28;20191;-42
2022/10/21 05:19:18;;;;;;;11.17;4.77;;;15.10;99.90;;;;;;5096799;28;20243;-42
2022/10/21 05:21:45;;;;;;;10.80;5.67;;;15.10;99.90;;;;;;5092070;28;20559;-45
2022/10/21 05:24:12;;;;;;;11.07;5.83;;;15.10;99.90;;;;;;5093543;28;22185;-42
2022/10/21 05:26:37;;;;;;;10.63;5.93;;;15.10;99.90;;;;;;5092833;28;20563;-43
2022/10/21 05:29:03;;;;;;;13.23;5.63;;;15.10;99.90;;;;;;5090858;28;20858;-42
2022/10/21 05:31:28;;;;;;;12.10;5.33;;;15.10;99.90;;;;;;5085958;28;20182;-42
2022/10/21 05:33:54;;;;;;;11.10;5.70;;;15.20;99.90;;;;;;5089062;28;20284;-42
2022/10/21 05:36:19;;;;;;;13.50;6.57;;;15.20;99.90;;;;;;5091075;28;20736;-43
2022/10/21 05:38:45;;;;;;;8.97;5.63;;;15.20;99.90;;;;;;5091117;28;20180;-42
2022/10/21 05:41:11;;;;;;;10.10;5.50;;;15.20;99.90;;;;;;5086929;28;20539;-46
2022/10/21 05:43:37;;;;;;;12.93;6.67;;;15.20;99.90;;;;;;5088803;28;20184;-43
2022/10/21 05:46:03;;;;;;;6.87;4.80;;;15.20;99.90;;;;;;5087868;28;20456;-44
2022/10/21 05:48:29;;;;;;;11.63;5.70;;;15.10;99.90;;;;;;5089977;28;20592;-43
2022/10/21 05:50:55;;;;;;;7.20;6.20;;;15.20;99.90;;;;;;5092857;28;20411;-42
2022/10/21 05:53:25;;;;;;;7.30;6.10;;;15.20;99.90;;;;;;5092051;28;20424;-42
2022/10/21 05:56:01;;;;;;;14.03;7.10;;;15.20;99.90;;;;;;5093001;28;20636;-42
2022/10/21 05:58:27;;;;;;;10.57;6.30;;;15.20;99.90;;;;;;5092030;28;20434;-43
2022/10/21 06:00:53;;;;;;;9.43;5.90;;;15.20;99.90;;;;;;5095069;28;20423;-44
2022/10/21 06:03:31;;;;;;;9.80;6.07;;;15.20;99.90;;;;;;5094440;28;20727;-44
2022/10/21 06:06:01;;;;;;;8.27;6.00;;;15.20;99.90;;;;;;5094762;28;20470;-45
2022/10/21 06:08:28;;;;;;;7.10;5.10;;;15.20;99.90;;;;;;5093825;28;20505;-45
2022/10/21 06:11:01;;;;;;;8.27;6.30;;;15.20;99.90;;;;;;5094701;28;20407;-42
2022/10/21 06:13:27;;;;;;;11.93;5.50;;;15.20;99.90;;;;;;5091019;28;20709;-45
2022/10/21 06:15:53;;;;;;;12.90;6.40;;;15.20;99.90;;;;;;5093806;28;20457;-43
2022/10/21 06:18:18;;;;;;;13.10;5.50;;;15.20;99.90;;;;;;5092880;28;20605;-42
2022/10/21 06:20:44;;;;;;;10.13;5.60;;;15.20;99.90;;;;;;5094582;28;20175;-46
2022/10/21 06:23:11;;;;;;;10.77;5.97;;;15.20;99.90;;;;;;5091620;28;20190;-42
2022/10/21 06:25:37;;;;;;;10.37;4.93;;;15.20;99.90;;;;;;5091415;28;20201;-44
2022/10/21 06:28:03;;;;;;;6.57;4.90;;;15.20;99.90;;;;;;5091860;28;20432;-44
2022/10/21 06:30:28;;;;;;;9.83;6.10;;;15.20;99.90;;;;;;5095179;28;20196;-42
2022/10/21 06:32:54;;;;;;;9.07;5.23;;;15.20;99.90;;;;;;5094345;28;20522;-43
2022/10/21 06:35:19;;;;;;;7.73;5.03;;;15.20;99.90;;;;;;5094737;28;20309;-43
2022/10/21 06:37:45;;;;;;;7.67;5.10;;;15.20;99.90;;;;;;5093470;28;20190;-42
2022/10/21 06:40:11;;;;;;;9.23;5.63;;;15.30;99.90;;;;;;5096073;28;20177;-42
2022/10/21 06:42:37;;;;;;;11.63;6.10;;;15.20;99.90;;;;;;5094062;28;20189;-42
2022/10/21 06:45:03;;;;;;;9.17;5.07;;;15.30;99.90;;;;;;5094694;28;20470;-43
2022/10/21 06:47:28;;;;;;;8.90;6.20;;;15.30;99.90;;;;;;5092896;28;20213;-43
2022/10/21 06:49:54;;;;;;;8.10;5.40;;;15.30;99.90;;;;;;5095297;28;20408;-43
2022/10/21 06:52:19;;;;;;;11.03;6.47;;;15.30;99.90;;;;;;5092784;28;20497;-41
2022/10/21 06:54:45;;;;;;;8.33;6.23;;;15.30;99.90;;;;;;5092859;28;20181;-42
2022/10/21 06:57:10;;;;;;;9.67;5.30;;;15.30;99.90;;;;;;5091215;28;20184;-41
2022/10/21 06:59:36;;;;;;;8.10;6.00;;;15.30;99.90;;;;;;5093679;28;20181;-42
2022/10/21 07:02:02;;;;;;;10.10;6.47;;;15.30;99.90;;;;;;5092510;28;20586;-42
2022/10/21 07:04:28;;;;;;;8.87;5.43;;;15.30;99.90;;;;;;5095769;28;20214;-41
2022/10/21 07:06:54;;;;;;;9.60;6.47;;;15.30;99.90;;;;;;5094120;28;20236;-43
2022/10/21 07:09:20;;;;;;;11.87;6.27;;;15.30;99.90;;;;;;5092167;28;20409;-42
2022/10/21 07:11:45;;;;;;;6.43;5.70;;;15.30;99.90;;;;;;5091921;28;20489;-43
2022/10/21 07:14:11;;;;;;;8.53;7.20;;;15.30;99.90;;;;;;5094148;28;20470;-43
2022/10/21 07:16:37;;;;;;;8.27;5.50;;;15.40;99.90;;;;;;5093096;28;20521;-42
2022/10/21 07:19:04;;;;;;;13.03;5.70;;;15.40;99.90;;;;;;5096568;28;20257;-42
2022/10/21 07:21:30;;;;;;;8.43;5.90;;;15.40;99.90;;;;;;5091657;28;20427;-44
2022/10/21 07:23:57;;;;;;;9.10;5.83;;;15.40;99.90;;;;;;5093978;28;20434;-45
2022/10/21 07:26:23;;;;;;;8.30;5.87;;;15.50;99.90;;;;;;5093358;28;20417;-43
2022/10/21 07:28:49;;;;;;;8.37;5.20;;;15.50;99.90;;;;;;5096344;28;20405;-42
2022/10/21 07:31:19;;;;;;;10.43;5.90;;;15.60;99.90;;;;;;5093022;28;20420;-42
2022/10/21 07:33:45;;;;;;;6.87;5.43;;;15.60;99.90;;;;;;5095982;28;20463;-45
2022/10/21 07:36:23;;;;;;;12.67;6.20;;;15.70;99.90;;;;;;5092822;28;20414;-44
2022/10/21 07:38:49;;;;;;;7.47;5.50;;;15.70;99.90;;;;;;5094150;28;20170;-44
2022/10/21 07:41:27;;;;;;;9.70;4.80;;;15.80;99.90;;;;;;5091827;28;20795;-42
2022/10/21 07:43:53;;;;;;;10.50;5.60;;;15.80;99.90;;;;;;5093511;28;20415;-42
2022/10/21 07:46:20;;;;;;;7.90;5.20;;;15.80;99.90;;;;;;5092273;28;20474;-43
2022/10/21 07:48:46;;;;;;;6.87;5.50;;;15.90;99.90;;;;;;5092172;28;20623;-43
2022/10/21 07:51:14;;;;;;;9.43;5.93;;;15.90;99.90;;;;;;5091376;28;20446;-43
2022/10/21 07:53:40;;;;;;;15.53;6.40;;;15.90;99.90;;;;;;5091646;28;20755;-42
2022/10/21 07:56:18;;;;;;;9.77;5.13;;;15.90;99.90;;;;;;5093023;28;20407;-43
2022/10/21 07:58:45;;;;;;;13.33;5.60;;;15.90;99.90;;;;;;5093406;28;20463;-44
2022/10/21 08:01:11;;;;;;;10.67;5.90;;;15.90;99.90;;;;;;5091801;28;20410;-41
2022/10/21 08:03:38;;;;;;;8.00;5.70;;;15.90;99.90;;;;;;5094907;28;20523;-44
2022/10/21 08:06:05;;;;;;;8.50;4.90;;;15.90;99.90;;;;;;5095362;28;20466;-44
2022/10/21 08:08:32;;;;;;;10.90;5.53;;;15.90;99.90;;;;;;5091417;28;20824;-43
2022/10/21 08:10:57;;;;;;;8.30;5.40;;;16.00;99.90;;;;;;5093812;28;20403;-42
2022/10/21 08:13:23;;;;;;;12.83;6.37;;;15.90;99.90;;;;;;5091742;28;20729;-44
2022/10/21 08:15:51;;;;;;;12.07;6.23;;;15.90;99.90;;;;;;5093358;28;20540;-45
2022/10/21 08:18:18;;;;;;;8.90;5.43;;;15.90;99.90;;;;;;5091242;28;20536;-44
2022/10/21 08:20:44;;;;;;;10.90;5.70;;;15.90;99.90;;;;;;5095353;28;20743;-44
2022/10/21 08:23:11;;;;;;;7.10;4.67;;;15.90;99.90;;;;;;5093784;28;20433;-42
2022/10/21 08:25:37;;;;;;;8.23;5.10;;;15.90;99.90;;;;;;5094435;28;20465;-43
2022/10/21 08:28:04;;;;;;;8.30;3.93;;;15.90;99.90;;;;;;5090719;28;20427;-43
2022/10/21 08:30:30;;;;;;;4.30;2.97;;;16.00;99.90;;;;;;5091418;28;20464;-41
2022/10/21 08:32:59;;;;;;;5.33;3.37;;;16.10;99.90;;;;;;5090583;28;20447;-41
2022/10/21 08:35:28;;;;;;;4.30;2.97;;;16.30;99.90;;;;;;5092522;28;20755;-43
2022/10/21 08:37:54;;;;;;;4.33;2.87;;;16.50;99.90;;;;;;5091772;28;20471;-41
2022/10/21 08:40:20;;;;;;;5.47;3.13;;;16.70;99.90;;;;;;5095874;28;20412;-43
2022/10/21 08:42:46;;;;;;;6.80;3.07;;;16.80;99.90;;;;;;5094304;28;20267;-42
2022/10/21 08:45:25;;;;;;;8.43;3.97;;;16.90;99.90;;;;;;5095840;28;20553;-41
2022/10/21 08:47:54;;;;;;;10.77;3.93;;;17.00;99.90;;;;;;5076773;28;20274;-43
2022/10/21 08:50:27;;;;;;;4.80;3.33;;;17.10;99.90;;;;;;5094941;28;20974;-43
2022/10/21 08:53:05;;;;;;;4.87;3.77;;;17.20;99.90;;;;;;5091469;28;20441;-41
2022/10/21 08:55:35;;;;;;;8.13;4.00;;;17.30;99.90;;;;;;5093946;28;20419;-40
2022/10/21 08:58:01;;;;;;;8.87;4.20;;;17.40;99.90;;;;;;5093663;28;20833;-41
2022/10/21 09:00:33;;;;;;;6.67;4.70;;;17.50;99.90;;;;;;5093745;28;20670;-41
2022/10/21 09:03:26;;;;;;;10.03;4.70;;;17.60;99.90;;;;;;5092860;28;20472;-41
2022/10/21 09:05:55;;;;;;;7.57;3.70;;;17.60;99.90;;;;;;5085409;28;20833;-41
2022/10/21 09:09:06;;;;;;;8.93;4.50;;;17.70;99.90;;;;;;5091696;28;20849;-42
2022/10/21 09:11:50;;;;;;;6.20;4.20;;;17.70;99.90;;;;;;5070090;28;20899;-42
2022/10/21 09:14:30;;;;;;;6.13;4.70;;;17.60;99.90;;;;;;5094297;28;20411;-44
2022/10/21 09:16:56;;;;;;;6.77;3.87;;;17.50;99.90;;;;;;5092006;28;20429;-42
2022/10/21 09:19:39;;;;;;;5.63;4.07;;;17.50;99.90;;;;;;5094121;28;20451;-42
2022/10/21 09:22:27;;;;;;;9.87;3.47;;;17.40;99.90;;;;;;5093770;28;20290;-44
2022/10/21 09:25:14;;;;;;;7.00;4.27;;;17.40;99.90;;;;;;5094160;28;20516;-45
2022/10/21 09:27:40;;;;;;;7.93;4.07;;;17.40;99.90;;;;;;5092192;28;20428;-42
2022/10/21 09:30:06;;;;;;;4.70;4.20;;;17.40;99.90;;;;;;5093805;28;20478;-42
2022/10/21 09:32:35;;;;;;;4.70;3.93;;;17.40;99.90;;;;;;5092971;28;20331;-42
2022/10/21 09:35:28;;;;;;;4.93;3.53;;;17.40;99.90;;;;;;5093786;28;20475;-44
2022/10/21 09:38:01;;;;;;;8.97;2.80;;;17.50;99.90;;;;;;5092711;28;20430;-42
2022/10/21 09:40:29;;;;;;;7.07;3.43;;;17.40;99.90;;;;;;5092841;28;20768;-43
2022/10/21 09:42:57;;;;;;;5.60;2.83;;;17.40;99.90;;;;;;5090615;28;20935;-43
2022/10/21 09:45:29;;;;;;;6.23;2.97;;;17.40;99.90;;;;;;5091263;28;20523;-43
2022/10/21 09:48:02;;;;;;;4.87;2.87;;;17.50;99.90;;;;;;5085703;28;20432;-44
2022/10/21 09:50:28;;;;;;;4.83;3.30;;;17.50;99.90;;;;;;5087173;28;20848;-42
2022/10/21 09:53:21;;;;;;;6.23;2.60;;;17.50;99.90;;;;;;5090237;28;20420;-45
2022/10/21 09:55:49;;;;;;;5.70;2.63;;;17.60;99.90;;;;;;5093223;28;20459;-43
2022/10/21 09:58:43;;;;;;;5.43;2.50;;;17.60;99.90;;;;;;5097585;28;20442;-42
2022/10/21 10:01:18;;;;;;;5.77;2.93;;;17.60;99.90;;;;;;5097806;28;20982;-43
2022/10/21 10:03:49;;;;;;;3.47;2.70;;;17.60;99.90;;;;;;5095337;28;20508;-45
2022/10/21 10:06:30;;;;;;;4.10;2.80;;;17.60;99.90;;;;;;5092789;28;20492;-42
2022/10/21 10:09:12;;;;;;;4.07;2.80;;;17.60;99.90;;;;;;5097020;28;20554;-43
2022/10/21 10:12:04;;;;;;;5.67;3.40;;;17.50;99.90;;;;;;5092670;28;20513;-43
2022/10/21 10:14:41;;;;;;;5.60;2.80;;;17.40;99.90;;;;;;5095908;28;21005;-44
2022/10/21 10:17:19;;;;;;;6.43;3.10;;;17.40;99.90;;;;;;5092463;28;20432;-43
2022/10/21 10:20:03;;;;;;;5.13;3.50;;;17.30;99.90;;;;;;5095472;28;20422;-43
2022/10/21 10:22:36;;;;;;;7.00;4.20;;;17.30;99.90;;;;;;5095757;28;20427;-43
2022/10/21 10:25:10;;;;;;;5.33;3.23;;;17.40;99.90;;;;;;5095296;28;20470;-43
2022/10/21 10:27:46;;;;;;;4.20;3.50;;;17.50;99.90;;;;;;5093789;28;20519;-44
2022/10/21 10:30:14;;;;;;;5.33;2.97;;;17.50;99.90;;;;;;5095112;28;20419;-43
2022/10/21 10:32:40;;;;;;;5.57;3.50;;;17.60;99.90;;;;;;5094736;28;20424;-42
2022/10/21 10:35:07;;;;;;;9.47;4.23;;;17.60;99.90;;;;;;5092555;28;20531;-46
2022/10/21 10:37:35;;;;;;;6.80;3.13;;;17.70;99.90;;;;;;5096497;28;20479;-42
2022/10/21 10:40:05;;;;;;;6.00;3.47;;;17.70;99.90;;;;;;5093459;28;20708;-42
2022/10/21 10:42:34;;;;;;;5.00;3.10;;;17.80;99.90;;;;;;5092900;28;20853;-42
2022/10/21 10:45:04;;;;;;;4.60;3.70;;;17.80;99.90;;;;;;5095316;28;20472;-42
2022/10/21 10:47:54;;;;;;;6.10;3.73;;;17.80;99.90;;;;;;5094676;28;20855;-43
2022/10/21 10:50:42;;;;;;;3.83;3.30;;;17.90;99.90;;;;;;5095737;28;20415;-43
2022/10/21 10:53:22;;;;;;;7.30;3.80;;;18.00;99.90;;;;;;5095419;28;20404;-45
2022/10/21 10:55:54;;;;;;;5.80;3.03;;;18.00;99.90;;;;;;5091454;28;20915;-43
2022/10/21 10:58:21;;;;;;;3.97;2.70;;;18.10;99.90;;;;;;5092599;28;20922;-46
2022/10/21 11:00:49;;;;;;;4.20;2.97;;;18.20;99.90;;;;;;5072970;28;20443;-42
2022/10/21 11:03:21;;;;;;;5.27;3.27;;;18.20;99.90;;;;;;5094094;28;20415;-43
2022/10/21 11:05:55;;;;;;;4.07;2.23;;;18.30;99.90;;;;;;5091935;28;20528;-45
2022/10/21 11:08:29;;;;;;;2.90;1.87;;;18.40;99.90;;;;;;5091925;28;20418;-44
2022/10/21 11:10:58;;;;;;;5.37;2.07;;;18.50;99.90;;;;;;5089000;28;20727;-43
2022/10/21 11:13:24;;;;;;;6.23;2.83;;;18.70;99.90;;;;;;5090341;28;20912;-44
2022/10/21 11:16:15;;;;;;;4.30;2.00;;;18.80;99.80;;;;;;5071331;28;20838;-46
2022/10/21 11:18:56;;;;;;;4.93;2.10;;;19.00;99.80;;;;;;5088050;28;20721;-44
2022/10/21 11:21:43;;;;;;;3.53;1.87;;;19.20;99.40;;;;;;5092049;28;20430;-43
2022/10/21 11:24:30;;;;;;;5.47;2.00;;;19.50;99.20;;;;;;5091029;28;20419;-42
2022/10/21 11:27:19;;;;;;;1.73;1.37;;;19.70;98.90;;;;;;5087730;28;20424;-42
2022/10/21 11:29:51;;;;;;;5.63;2.37;;;20.00;98.40;;;;;;5054875;28;20646;-44
2022/10/21 11:32:39;;;;;;;2.40;1.53;;;20.20;97.70;;;;;;5087475;28;20420;-47
2022/10/21 11:35:15;;;;;;;3.33;1.70;;;20.40;97.00;;;;;;5089934;28;20567;-45
2022/10/21 11:38:16;;;;;;;2.33;1.50;;;20.60;96.50;;;;;;5086934;28;20436;-43
2022/10/21 11:41:05;;;;;;;2.90;1.80;;;20.90;96.30;;;;;;5090467;28;20440;-45
2022/10/21 11:43:43;;;;;;;3.13;1.73;;;21.30;95.70;;;;;;5092661;28;20447;-41
2022/10/21 11:46:31;;;;;;;2.77;1.33;;;21.50;94.80;;;;;;5090823;28;20489;-45
2022/10/21 11:49:32;;;;;;;2.87;1.40;;;21.60;94.40;;;;;;5073683;28;20426;-42
2022/10/21 11:52:12;;;;;;;3.30;1.37;;;21.60;94.10;;;;;;5092406;28;20523;-41
2022/10/21 11:55:07;;;;;;;2.57;1.50;;;21.60;93.80;;;;;;5090190;28;20775;-41
2022/10/21 11:58:03;;;;;;;2.07;1.30;;;21.40;93.50;;;;;;5089242;28;20849;-42
2022/10/21 12:00:50;;;;;;;4.00;1.37;;;21.20;93.70;;;;;;5089133;28;20860;-44
2022/10/21 12:03:37;;;;;;;2.57;1.00;;;21.10;93.80;;;;;;5092274;28;20433;-43
2022/10/21 12:06:11;;;;;;;4.47;1.73;;;20.80;93.80;;;;;;5087524;28;20862;-42
2022/10/21 12:08:57;;;;;;;1.70;1.10;;;20.60;93.70;;;;;;5089070;28;20537;-42
2022/10/21 12:11:43;;;;;;;1.53;1.37;;;20.40;94.00;;;;;;5088651;28;20425;-42
2022/10/21 12:14:21;;;;;;;2.37;1.57;;;20.30;94.20;;;;;;5092055;28;20476;-44
2022/10/21 12:16:47;;;;;;;2.30;0.97;;;20.20;94.40;;;;;;5092539;28;20682;-42
2022/10/21 12:19:13;;;;;;;2.90;1.00;;;20.00;94.50;;;;;;5091772;28;20528;-43
2022/10/21 12:21:42;;;;;;;1.40;1.00;;;20.00;94.70;;;;;;5093333;28;20444;-41
2022/10/21 12:24:37;;;;;;;1.63;0.80;;;19.90;94.80;;;;;;5092139;28;20180;-43
2022/10/21 12:27:19;;;;;;;1.90;0.80;;;19.90;94.80;;;;;;5093887;28;20441;-44
2022/10/21 12:30:11;;;;;;;1.50;1.10;;;19.90;94.90;;;;;;5092089;28;20689;-47
2022/10/21 12:33:06;;;;;;;2.80;1.37;;;19.90;95.00;;;;;;5093300;28;20431;-45
2022/10/21 12:35:48;;;;;;;2.50;1.03;;;19.80;95.00;;;;;;5082364;28;20512;-43
2022/10/21 12:38:52;;;;;;;2.90;1.00;;;19.70;94.90;;;;;;5090303;28;20865;-43
2022/10/21 12:41:26;;;;;;;3.30;0.80;;;19.70;95.00;;;;;;5090777;28;20513;-42
2022/10/21 12:44:01;;;;;;;2.67;1.20;;;19.50;95.10;;;;;;5093239;28;20495;-43
2022/10/21 12:46:46;;;;;;;3.20;1.63;;;19.40;95.20;;;;;;5089499;28;20472;-45
2022/10/21 12:49:17;;;;;;;2.63;1.00;;;19.20;95.40;;;;;;5090907;28;20408;-43
2022/10/21 12:51:52;;;;;;;1.30;1.00;;;19.20;95.60;;;;;;5091508;28;20436;-42
2022/10/21 12:54:22;;;;;;;2.40;1.20;;;19.20;95.80;;;;;;5088235;28;20663;-44
2022/10/21 12:56:49;;;;;;;2.17;1.13;;;19.30;96.00;;;;;;5088043;28;20429;-44
2022/10/21 12:59:26;;;;;;;2.60;1.40;;;19.30;96.10;;;;;;5094078;28;20466;-44
2022/10/21 13:02:06;;;;;;;2.53;1.00;;;19.30;96.00;;;;;;5092836;28;20428;-47